createdAt,value
2022-12-03T00:00:13.424Z,102146.88
2022-12-03T00:02:41.540Z,102146.88
2022-12-03T00:05:10.044Z,102143.81
2022-12-03T00:07:37.579Z,102139.00
2022-12-03T00:10:06.263Z,102146.75
2022-12-03T00:12:33.870Z,102139.13
2022-12-03T00:15:01.330Z,102139.19
2022-12-03T00:17:30.191Z,102143.59
2022-12-03T00:19:57.622Z,102144.34
2022-12-03T00:22:25.117Z,102144.19
2022-12-03T00:24:52.726Z,102137.28
2022-12-03T00:27:20.567Z,102142.75
2022-12-03T00:29:48.030Z,102141.16
2022-12-03T00:32:15.493Z,102139.09
2022-12-03T00:34:44.286Z,102139.56
2022-12-03T00:37:11.744Z,102145.03
2022-12-03T00:39:39.859Z,102138.31
2022-12-03T00:42:07.302Z,102138.13
2022-12-03T00:44:34.750Z,102143.78
2022-12-03T00:47:02.289Z,102143.09
2022-12-03T00:49:29.754Z,102138.00
2022-12-03T00:51:58.644Z,102150.34
2022-12-03T00:54:31.694Z,102151.56
2022-12-03T00:56:59.962Z,102152.34
2022-12-03T00:59:27.498Z,102157.56
2022-12-03T01:01:55.054Z,102150.03
2022-12-03T01:04:22.722Z,102153.22
2022-12-03T01:06:50.255Z,102156.88
2022-12-03T01:09:19.077Z,102159.97
2022-12-03T01:11:46.537Z,102154.00
2022-12-03T01:14:16.078Z,102162.09
2022-12-03T01:16:46.973Z,102149.69
2022-12-03T01:19:16.312Z,102155.00
2022-12-03T01:21:44.297Z,102155.66
2022-12-03T01:24:12.152Z,102148.41
2022-12-03T01:26:41.072Z,102151.19
2022-12-03T01:29:08.548Z,102149.50
2022-12-03T01:31:53.746Z,102150.84
2022-12-03T01:34:21.335Z,102143.31
2022-12-03T01:36:48.766Z,102144.41
2022-12-03T01:39:16.223Z,102145.47
2022-12-03T01:41:45.231Z,102145.13
2022-12-03T01:44:16.685Z,102150.69
2022-12-03T01:46:44.620Z,102148.25
2022-12-03T01:49:18.455Z,102150.53
2022-12-03T01:51:46.103Z,102148.94
2022-12-03T01:54:17.367Z,102153.06
2022-12-03T01:56:46.550Z,102157.84
2022-12-03T01:59:16.734Z,102154.72
2022-12-03T02:01:44.225Z,102156.06
2022-12-03T02:04:14.997Z,102152.91
2022-12-03T02:06:43.130Z,102149.06
2022-12-03T02:09:11.303Z,102147.47
2022-12-03T02:11:40.608Z,102152.91
2022-12-03T02:14:12.247Z,102150.53
2022-12-03T02:16:41.079Z,102143.09
2022-12-03T02:19:15.126Z,102148.94
2022-12-03T02:21:47.192Z,102148.63
2022-12-03T02:24:20.726Z,102142.94
2022-12-03T02:26:49.545Z,102148.03
2022-12-03T02:29:17.119Z,102151.22
2022-12-03T02:31:44.817Z,102142.91
2022-12-03T02:34:12.579Z,102143.06
2022-12-03T02:36:40.300Z,102148.88
2022-12-03T02:39:08.047Z,102151.50
2022-12-03T02:41:53.143Z,102152.38
2022-12-03T02:44:22.007Z,102148.19
2022-12-03T02:46:49.520Z,102150.28
2022-12-03T02:49:17.046Z,102152.25
2022-12-03T02:51:44.506Z,102155.22
2022-12-03T02:54:12.054Z,102150.34
2022-12-03T02:56:39.542Z,102159.59
2022-12-03T02:59:07.051Z,102147.31
2022-12-03T03:01:35.976Z,102149.50
2022-12-03T03:04:04.426Z,102150.97
2022-12-03T03:06:32.096Z,102154.63
2022-12-03T03:08:59.545Z,102142.91
2022-12-03T03:11:27.728Z,102144.22
2022-12-03T03:13:55.198Z,102150.66
2022-12-03T03:16:22.770Z,102143.69
2022-12-03T03:18:51.642Z,102139.69
2022-12-03T03:21:19.859Z,102143.78
2022-12-03T03:23:47.347Z,102141.94
2022-12-03T03:26:16.104Z,102146.16
2022-12-03T03:28:45.495Z,102145.75
2022-12-03T03:31:15.837Z,102148.75
2022-12-03T03:33:45.294Z,102144.03
2022-12-03T03:36:15.774Z,102139.56
2022-12-03T03:38:43.439Z,102135.84
2022-12-03T03:41:11.548Z,102138.06
2022-12-03T03:43:40.065Z,102136.78
2022-12-03T03:46:08.125Z,102130.31
2022-12-03T03:48:36.160Z,102130.41
2022-12-03T03:51:08.593Z,102136.06
2022-12-03T03:53:38.192Z,102125.16
2022-12-03T03:56:05.987Z,102124.50
2022-12-03T03:58:33.541Z,102132.47
2022-12-03T04:01:01.888Z,102132.25
2022-12-03T04:03:29.895Z,102130.03
2022-12-03T04:05:57.349Z,102124.69
2022-12-03T04:08:24.822Z,102132.19
2022-12-03T04:11:22.505Z,102124.63
2022-12-03T04:13:49.976Z,102126.94
2022-12-03T04:16:17.529Z,102120.13
2022-12-03T04:18:45.021Z,102112.59
2022-12-03T04:21:29.999Z,102113.50
2022-12-03T04:23:57.608Z,102117.25
2022-12-03T04:26:43.683Z,102116.00
2022-12-03T04:29:11.246Z,102116.09
2022-12-03T04:32:04.595Z,102125.22
2022-12-03T04:34:49.746Z,102122.41
2022-12-03T04:37:17.257Z,102116.25
2022-12-03T04:39:44.842Z,102119.91
2022-12-03T04:42:13.638Z,102129.53
2022-12-03T04:44:41.361Z,102126.28
2022-12-03T04:47:10.632Z,102128.81
2022-12-03T04:49:39.828Z,102127.59
2022-12-03T04:52:07.629Z,102126.28
2022-12-03T04:54:35.527Z,102131.38
2022-12-03T04:57:03.387Z,102113.84
2022-12-03T04:59:34.876Z,102116.19
2022-12-03T05:02:02.829Z,102114.28
2022-12-03T05:04:30.452Z,102115.50
2022-12-03T05:06:57.926Z,102118.44
2022-12-03T05:09:25.379Z,102116.69
2022-12-03T05:11:55.486Z,102108.66
2022-12-03T05:14:22.959Z,102109.22
2022-12-03T05:16:51.795Z,102105.59
2022-12-03T05:19:19.290Z,102102.13
2022-12-03T05:21:45.791Z,102104.34
2022-12-03T05:24:13.254Z,102107.09
2022-12-03T05:26:40.756Z,102119.91
2022-12-03T05:29:11.211Z,102103.41
2022-12-03T05:31:38.659Z,102106.59
2022-12-03T05:34:07.457Z,102107.84
2022-12-03T05:36:34.925Z,102113.38
2022-12-03T05:39:03.117Z,102099.66
2022-12-03T05:41:47.982Z,102104.03
2022-12-03T05:44:20.247Z,102100.31
2022-12-03T05:46:47.996Z,102103.03
2022-12-03T05:49:16.789Z,102096.44
2022-12-03T05:51:44.262Z,102086.72
2022-12-03T05:54:11.828Z,102094.81
2022-12-03T05:56:39.259Z,102095.31
2022-12-03T05:59:06.799Z,102095.66
2022-12-03T06:01:34.328Z,102093.53
2022-12-03T06:04:01.845Z,102097.16
2022-12-03T06:06:30.783Z,102100.81
2022-12-03T06:08:58.240Z,102086.66
2022-12-03T06:11:25.747Z,102086.84
2022-12-03T06:13:53.239Z,102087.75
2022-12-03T06:16:20.770Z,102085.25
2022-12-03T06:18:48.271Z,102076.34
2022-12-03T06:21:15.708Z,102077.31
2022-12-03T06:23:44.657Z,102084.72
2022-12-03T06:26:12.361Z,102074.94
2022-12-03T06:28:39.831Z,102067.69
2022-12-03T06:31:07.529Z,102069.63
2022-12-03T06:33:35.087Z,102071.19
2022-12-03T06:36:02.562Z,102072.22
2022-12-03T06:38:30.055Z,102076.59
2022-12-03T06:40:58.866Z,102077.88
2022-12-03T06:43:26.357Z,102071.28
2022-12-03T06:45:53.844Z,102067.88
2022-12-03T06:48:21.274Z,102062.25
2022-12-03T06:50:48.720Z,102066.84
2022-12-03T06:53:16.186Z,102067.28
2022-12-03T06:55:46.675Z,102073.28
2022-12-03T06:58:15.541Z,102068.44
2022-12-03T07:00:43.006Z,102071.63
2022-12-03T07:03:10.736Z,102069.53
2022-12-03T07:05:38.291Z,102066.69
2022-12-03T07:08:06.381Z,102070.34
2022-12-03T07:10:33.863Z,102068.19
2022-12-03T07:13:01.392Z,102073.66
2022-12-03T07:15:30.251Z,102076.44
2022-12-03T07:17:57.876Z,102067.56
2022-12-03T07:20:25.367Z,102065.47
2022-12-03T07:22:52.902Z,102066.78
2022-12-03T07:25:23.344Z,102070.78
2022-12-03T07:27:51.292Z,102070.56
2022-12-03T07:30:19.215Z,102074.59
2022-12-03T07:32:48.007Z,102078.69
2022-12-03T07:35:15.576Z,102074.94
2022-12-03T07:37:43.087Z,102076.72
2022-12-03T07:40:11.832Z,102076.03
2022-12-03T07:42:39.307Z,102070.78
2022-12-03T07:45:08.028Z,102076.66
2022-12-03T07:47:35.532Z,102075.88
2022-12-03T07:50:04.517Z,102078.84
2022-12-03T07:52:32.077Z,102061.09
2022-12-03T07:54:59.523Z,102068.66
2022-12-03T07:57:26.985Z,102070.59
2022-12-03T07:59:54.448Z,102068.38
2022-12-03T08:02:22.153Z,102060.84
2022-12-03T08:05:06.826Z,102056.63
2022-12-03T08:07:34.648Z,102070.97
2022-12-03T08:10:02.208Z,102066.56
2022-12-03T08:12:39.942Z,102058.44
2022-12-03T08:15:12.146Z,102063.72
2022-12-03T08:17:40.350Z,102059.81
2022-12-03T08:20:13.316Z,102064.19
2022-12-03T08:22:42.093Z,102059.84
2022-12-03T08:25:14.804Z,102062.38
2022-12-03T08:27:42.278Z,102057.56
2022-12-03T08:30:13.990Z,102053.88
2022-12-03T08:32:41.695Z,102059.34
2022-12-03T08:35:14.113Z,102051.97
2022-12-03T08:37:41.676Z,102049.25
2022-12-03T08:40:28.967Z,102047.13
2022-12-03T08:42:56.409Z,102058.72
2022-12-03T08:45:39.446Z,102058.84
2022-12-03T08:48:24.345Z,102065.38
2022-12-03T08:50:53.983Z,102067.75
2022-12-03T08:53:27.051Z,102063.44
2022-12-03T08:55:56.041Z,102057.16
2022-12-03T08:58:34.651Z,102060.41
2022-12-03T09:01:16.406Z,102052.63
2022-12-03T09:03:48.974Z,102045.88
2022-12-03T09:06:17.864Z,102046.09
2022-12-03T09:08:45.323Z,102054.25
2022-12-03T09:11:12.797Z,102050.09
2022-12-03T09:13:40.300Z,102044.84
2022-12-03T09:16:08.360Z,102040.63
2022-12-03T09:18:35.890Z,102044.00
2022-12-03T09:21:03.339Z,102041.03
2022-12-03T09:23:32.122Z,102037.31
2022-12-03T09:26:00.191Z,102044.72
2022-12-03T09:28:27.656Z,102035.56
2022-12-03T09:30:55.286Z,102033.91
2022-12-03T09:33:22.836Z,102029.28
2022-12-03T09:35:50.369Z,102024.75
2022-12-03T09:38:17.849Z,102031.69
2022-12-03T09:40:46.736Z,102031.69
2022-12-03T09:43:14.247Z,102025.75
2022-12-03T09:45:41.773Z,102031.16
2022-12-03T09:48:09.294Z,102029.84
2022-12-03T09:50:38.556Z,102025.97
2022-12-03T09:53:06.035Z,102023.00
2022-12-03T09:55:34.252Z,102018.56
2022-12-03T09:58:03.108Z,102014.97
2022-12-03T10:00:31.398Z,102013.78
2022-12-03T10:03:02.540Z,102016.06
2022-12-03T10:05:30.420Z,102003.22
2022-12-03T10:08:09.647Z,102013.13
2022-12-03T10:10:38.014Z,102006.03
2022-12-03T10:13:08.377Z,102011.75
2022-12-03T10:15:35.901Z,102003.66
2022-12-03T10:18:14.363Z,101999.78
2022-12-03T10:20:41.861Z,102010.31
2022-12-03T10:23:09.327Z,102013.34
2022-12-03T10:25:51.075Z,102005.31
2022-12-03T10:28:30.796Z,102005.38
2022-12-03T10:30:58.966Z,102005.72
2022-12-03T10:33:31.451Z,101997.47
2022-12-03T10:36:15.531Z,102003.22
2022-12-03T10:38:43.734Z,102001.88
2022-12-03T10:41:25.874Z,102002.25
2022-12-03T10:43:54.682Z,101998.03
2022-12-03T10:46:23.569Z,102007.22
2022-12-03T10:49:10.123Z,102002.63
2022-12-03T10:51:39.282Z,101985.03
2022-12-03T10:54:15.199Z,101996.28
2022-12-03T10:56:42.703Z,101983.44
2022-12-03T10:59:14.794Z,101970.25
2022-12-03T11:01:42.435Z,101978.13
2022-12-03T11:04:16.471Z,101985.22
2022-12-03T11:06:43.919Z,101980.88
2022-12-03T11:09:15.299Z,101971.19
2022-12-03T11:11:42.795Z,101973.34
2022-12-03T11:14:14.734Z,101967.19
2022-12-03T11:17:07.809Z,101962.06
2022-12-03T11:19:59.294Z,101955.34
2022-12-03T11:22:45.244Z,101958.41
2022-12-03T11:25:36.975Z,101955.06
2022-12-03T11:28:38.019Z,101945.78
2022-12-03T11:31:12.249Z,101948.25
2022-12-03T11:33:41.286Z,101942.84
2022-12-03T11:36:15.321Z,101948.50
2022-12-03T11:38:52.260Z,101940.19
2022-12-03T11:41:22.849Z,101939.63
2022-12-03T11:44:32.229Z,101935.13
2022-12-03T11:47:03.227Z,101930.69
2022-12-03T11:49:48.094Z,101922.88
2022-12-03T11:52:29.476Z,101919.41
2022-12-03T11:55:03.023Z,101914.66
2022-12-03T11:57:34.026Z,101911.81
2022-12-03T12:00:04.837Z,101908.06
2022-12-03T12:02:33.736Z,101901.81
2022-12-03T12:05:16.155Z,101906.59
2022-12-03T12:07:45.724Z,101901.66
2022-12-03T12:10:13.227Z,101882.38
2022-12-03T12:12:45.608Z,101882.53
2022-12-03T12:15:41.315Z,101872.44
2022-12-03T12:18:39.701Z,101884.38
2022-12-03T12:21:43.023Z,101874.94
2022-12-03T12:24:30.595Z,101866.81
2022-12-03T12:26:58.814Z,101866.97
2022-12-03T12:29:26.340Z,101865.22
2022-12-03T12:31:59.230Z,101869.28
2022-12-03T12:34:28.079Z,101874.69
2022-12-03T12:36:56.717Z,101871.28
2022-12-03T12:39:24.219Z,101868.28
2022-12-03T12:41:52.719Z,101866.13
2022-12-03T12:44:23.295Z,101863.59
2022-12-03T12:46:52.116Z,101860.16
2022-12-03T12:49:23.315Z,101855.38
2022-12-03T12:51:52.169Z,101863.31
2022-12-03T12:54:19.670Z,101859.16
2022-12-03T12:56:49.808Z,101856.88
2022-12-03T12:59:19.225Z,101856.88
2022-12-03T13:01:47.708Z,101848.31
2022-12-03T13:04:17.179Z,101851.50
2022-12-03T13:06:45.267Z,101852.56
2022-12-03T13:09:20.168Z,101848.50
2022-12-03T13:11:51.548Z,101857.94
2022-12-03T13:14:20.643Z,101862.09
2022-12-03T13:16:49.078Z,101859.47
2022-12-03T13:19:24.134Z,101858.22
2022-12-03T13:21:52.559Z,101853.91
2022-12-03T13:24:31.879Z,101856.59
2022-12-03T13:27:00.478Z,101853.00
2022-12-03T13:29:28.687Z,101848.16
2022-12-03T13:31:58.042Z,101853.25
2022-12-03T13:34:27.675Z,101846.00
2022-12-03T13:36:58.393Z,101850.16
2022-12-03T13:39:33.299Z,101843.34
2022-12-03T13:42:31.431Z,101841.50
2022-12-03T13:44:58.870Z,101843.88
2022-12-03T13:47:26.899Z,101831.72
2022-12-03T13:49:56.164Z,101840.38
2022-12-03T13:52:25.927Z,101840.69
2022-12-03T13:54:56.522Z,101838.25
2022-12-03T13:57:24.266Z,101834.06
2022-12-03T13:59:52.349Z,101835.03
2022-12-03T14:02:20.065Z,101835.56
2022-12-03T14:04:47.658Z,101836.56
2022-12-03T14:07:15.274Z,101837.88
2022-12-03T14:09:42.720Z,101840.03
2022-12-03T14:12:26.618Z,101834.34
2022-12-03T14:14:54.360Z,101833.16
2022-12-03T14:17:21.827Z,101829.50
2022-12-03T14:19:49.836Z,101843.31
2022-12-03T14:22:19.243Z,101846.34
2022-12-03T14:24:46.705Z,101841.34
2022-12-03T14:27:15.625Z,101829.53
2022-12-03T14:29:43.101Z,101829.00
2022-12-03T14:32:10.661Z,101831.56
2022-12-03T14:34:38.207Z,101830.22
2022-12-03T14:37:05.698Z,101824.19
2022-12-03T14:39:33.184Z,101827.19
2022-12-03T14:42:16.637Z,101824.69
2022-12-03T14:44:47.093Z,101826.56
2022-12-03T14:47:15.591Z,101818.69
2022-12-03T14:49:43.163Z,101819.41
2022-12-03T14:52:12.401Z,101811.97
2022-12-03T14:54:41.970Z,101812.81
2022-12-03T14:57:11.197Z,101804.38
2022-12-03T14:59:38.682Z,101804.22
2022-12-03T15:02:07.591Z,101804.38
2022-12-03T15:04:35.494Z,101805.88
2022-12-03T15:07:03.490Z,101811.97
2022-12-03T15:09:31.027Z,101803.19
2022-12-03T15:11:59.811Z,101798.22
2022-12-03T15:14:27.284Z,101806.19
2022-12-03T15:16:54.892Z,101804.38
2022-12-03T15:19:23.681Z,101800.91
2022-12-03T15:21:51.132Z,101800.28
2022-12-03T15:24:18.587Z,101798.34
2022-12-03T15:26:46.070Z,101800.59
2022-12-03T15:29:13.527Z,101806.53
2022-12-03T15:31:41.020Z,101807.03
2022-12-03T15:34:08.506Z,101811.00
2022-12-03T15:36:37.352Z,101806.53
2022-12-03T15:39:04.847Z,101810.19
2022-12-03T15:41:32.483Z,101806.84
2022-12-03T15:44:03.084Z,101813.50
2022-12-03T15:46:31.362Z,101810.50
2022-12-03T15:48:59.118Z,101804.41
2022-12-03T15:51:26.578Z,101807.00
2022-12-03T15:53:55.362Z,101804.06
2022-12-03T15:56:22.806Z,101805.53
2022-12-03T15:58:50.245Z,101797.56
2022-12-03T16:01:18.213Z,101803.84
2022-12-03T16:03:45.962Z,101810.50
2022-12-03T16:06:14.553Z,101806.53
2022-12-03T16:08:41.995Z,101803.56
2022-12-03T16:11:10.882Z,101806.84
2022-12-03T16:13:38.343Z,101805.41
2022-12-03T16:16:06.309Z,101801.91
2022-12-03T16:18:33.819Z,101803.56
2022-12-03T16:21:01.263Z,101801.38
2022-12-03T16:23:28.786Z,101806.69
2022-12-03T16:25:56.214Z,101805.53
2022-12-03T16:28:24.983Z,101807.63
2022-12-03T16:30:52.534Z,101808.16
2022-12-03T16:33:25.672Z,101803.81
2022-12-03T16:35:54.854Z,101812.13
2022-12-03T16:38:22.451Z,101809.25
2022-12-03T16:40:49.943Z,101797.78
2022-12-03T16:43:17.402Z,101800.84
2022-12-03T16:46:03.985Z,101796.63
2022-12-03T16:48:31.596Z,101804.59
2022-12-03T16:50:59.027Z,101802.91
2022-12-03T16:53:26.481Z,101804.28
2022-12-03T16:55:53.943Z,101802.19
2022-12-03T16:58:21.499Z,101802.38
2022-12-03T17:00:50.894Z,101804.13
2022-12-03T17:03:18.621Z,101794.56
2022-12-03T17:05:46.459Z,101798.19
2022-12-03T17:08:14.508Z,101798.38
2022-12-03T17:10:42.116Z,101795.91
2022-12-03T17:13:10.499Z,101800.84
2022-12-03T17:15:39.039Z,101796.72
2022-12-03T17:18:08.679Z,101789.88
2022-12-03T17:20:36.688Z,101796.09
2022-12-03T17:23:04.587Z,101803.78
2022-12-03T17:25:32.239Z,101790.78
2022-12-03T17:27:59.751Z,101792.09
2022-12-03T17:30:27.598Z,101795.91
2022-12-03T17:32:55.066Z,101802.28
2022-12-03T17:35:23.882Z,101796.28
2022-12-03T17:37:51.427Z,101789.78
2022-12-03T17:40:18.916Z,101802.09
2022-12-03T17:42:46.791Z,101797.78
2022-12-03T17:45:14.570Z,101807.94
2022-12-03T17:47:42.052Z,101802.28
2022-12-03T17:50:10.276Z,101797.38
2022-12-03T17:52:39.070Z,101802.88
2022-12-03T17:55:13.954Z,101795.41
2022-12-03T17:57:45.434Z,101798.59
2022-12-03T18:00:13.786Z,101794.53
2022-12-03T18:02:41.225Z,101802.63
2022-12-03T18:05:09.443Z,101799.63
2022-12-03T18:07:36.958Z,101802.19
2022-12-03T18:10:07.114Z,101799.69
2022-12-03T18:12:35.749Z,101799.59
2022-12-03T18:15:03.235Z,101792.13
2022-12-03T18:17:30.780Z,101795.44
2022-12-03T18:19:58.465Z,101793.69
2022-12-03T18:22:27.499Z,101791.09
2022-12-03T18:24:55.067Z,101794.84
2022-12-03T18:27:24.226Z,101787.38
2022-12-03T18:29:51.943Z,101790.97
2022-12-03T18:32:28.810Z,101793.75
2022-12-03T18:34:57.334Z,101794.34
2022-12-03T18:37:27.680Z,101791.81
2022-12-03T18:39:55.558Z,101794.66
2022-12-03T18:42:24.746Z,101794.47
2022-12-03T18:44:54.104Z,101794.72
2022-12-03T18:47:23.328Z,101794.56
2022-12-03T18:49:50.891Z,101797.31
2022-12-03T18:52:20.729Z,101790.75
2022-12-03T18:54:48.702Z,101793.94
2022-12-03T18:57:16.600Z,101793.94
2022-12-03T18:59:45.452Z,101796.91
2022-12-03T19:02:38.544Z,101797.19
2022-12-03T19:05:04.069Z,101804.13
2022-12-03T19:07:31.549Z,101805.41
2022-12-03T19:09:59.043Z,101806.44
2022-12-03T19:12:26.475Z,101788.72
2022-12-03T19:14:55.235Z,101792.03
2022-12-03T19:17:22.694Z,101781.41
2022-12-03T19:19:50.125Z,101799.84
2022-12-03T19:22:17.584Z,101794.47
2022-12-03T19:24:45.112Z,101803.22
2022-12-03T19:27:12.591Z,101798.88
2022-12-03T19:29:40.363Z,101797.59
2022-12-03T19:32:09.689Z,101804.06
2022-12-03T19:34:37.958Z,101804.25
2022-12-03T19:37:05.418Z,101800.63
2022-12-03T19:39:33.142Z,101799.34
2022-12-03T19:42:03.833Z,101807.56
2022-12-03T19:44:31.428Z,101811.38
2022-12-03T19:46:58.972Z,101810.41
2022-12-03T19:49:27.814Z,101811.19
2022-12-03T19:51:55.303Z,101806.72
2022-12-03T19:54:23.918Z,101805.94
2022-12-03T19:56:51.361Z,101811.16
2022-12-03T19:59:18.799Z,101808.47
2022-12-03T20:01:46.414Z,101821.63
2022-12-03T20:04:14.387Z,101823.56
2022-12-03T20:06:45.303Z,101819.47
2022-12-03T20:09:17.482Z,101813.66
2022-12-03T20:11:45.873Z,101819.84
2022-12-03T20:14:14.749Z,101809.19
2022-12-03T20:16:42.375Z,101817.75
2022-12-03T20:19:12.505Z,101823.19
2022-12-03T20:21:41.134Z,101817.69
2022-12-03T20:24:14.174Z,101820.16
2022-12-03T20:26:41.862Z,101817.59
2022-12-03T20:29:09.348Z,101822.81
2022-12-03T20:31:36.848Z,101814.66
2022-12-03T20:34:05.018Z,101817.28
2022-12-03T20:36:33.074Z,101812.00
2022-12-03T20:39:03.071Z,101808.91
2022-12-03T20:41:32.214Z,101812.38
2022-12-03T20:43:59.693Z,101821.50
2022-12-03T20:46:29.524Z,101802.97
2022-12-03T20:48:57.341Z,101802.59
2022-12-03T20:51:30.678Z,101798.91
2022-12-03T20:53:59.054Z,101793.69
2022-12-03T20:56:28.446Z,101789.31
2022-12-03T20:58:57.226Z,101783.16
2022-12-03T21:01:28.800Z,101776.66
2022-12-03T21:03:57.735Z,101779.03
2022-12-03T21:06:26.633Z,101772.84
2022-12-03T21:08:54.944Z,101777.66
2022-12-03T21:11:24.722Z,101776.72
2022-12-03T21:13:53.207Z,101773.78
2022-12-03T21:16:52.013Z,101772.94
2022-12-03T21:19:13.210Z,101776.28
2022-12-03T21:21:40.800Z,101773.63
2022-12-03T21:24:08.854Z,101774.63
2022-12-03T21:26:36.351Z,101779.97
2022-12-03T21:29:03.818Z,101775.94
2022-12-03T21:31:32.660Z,101780.81
2022-12-03T21:34:00.262Z,101783.44
2022-12-03T21:36:27.699Z,101783.44
2022-12-03T21:38:55.179Z,101783.53
2022-12-03T21:41:22.612Z,101780.66
2022-12-03T21:43:50.067Z,101776.44
2022-12-03T21:47:09.949Z,101787.66
2022-12-03T21:49:06.498Z,101788.53
2022-12-03T21:51:33.986Z,101787.72
2022-12-03T21:54:03.911Z,101788.81
2022-12-03T21:56:31.834Z,101783.34
2022-12-03T21:58:59.442Z,101789.72
2022-12-03T22:01:27.057Z,101785.81
2022-12-03T22:03:54.571Z,101782.28
2022-12-03T22:06:23.506Z,101779.78
2022-12-03T22:08:51.408Z,101782.94
2022-12-03T22:11:20.638Z,101784.16
2022-12-03T22:13:48.289Z,101784.34
2022-12-03T22:16:18.499Z,101778.31
2022-12-03T22:18:46.141Z,101780.34
2022-12-03T22:21:15.315Z,101776.53
2022-12-03T22:23:44.479Z,101777.22
2022-12-03T22:26:13.666Z,101782.03
2022-12-03T22:28:43.536Z,101781.06
2022-12-03T22:31:11.517Z,101776.19
2022-12-03T22:33:39.553Z,101780.38
2022-12-03T22:36:12.185Z,101783.34
2022-12-03T22:38:45.336Z,101783.69
2022-12-03T22:41:14.168Z,101780.38
2022-12-03T22:43:41.639Z,101780.53
2022-12-03T22:46:10.866Z,101784.72
2022-12-03T22:48:38.614Z,101785.94
2022-12-03T22:51:11.111Z,101779.19
2022-12-03T22:53:38.575Z,101782.84
2022-12-03T22:56:07.615Z,101777.53
2022-12-03T22:58:35.347Z,101775.19
2022-12-03T23:01:03.384Z,101780.69
2022-12-03T23:03:31.388Z,101776.56
2022-12-03T23:05:58.862Z,101782.50
2022-12-03T23:08:26.334Z,101773.88
2022-12-03T23:10:53.950Z,101767.94
2022-12-03T23:13:22.766Z,101768.59
2022-12-03T23:15:52.415Z,101766.53
2022-12-03T23:18:20.580Z,101768.09
2022-12-03T23:20:49.750Z,101775.84
2022-12-03T23:23:17.720Z,101771.97
2022-12-03T23:25:45.684Z,101780.19
2022-12-03T23:28:13.463Z,101771.28
2022-12-03T23:30:42.273Z,101775.53
2022-12-03T23:33:09.712Z,101772.53
2022-12-03T23:35:39.762Z,101763.34
2022-12-03T23:38:07.227Z,101764.91
2022-12-03T23:40:35.317Z,101770.38
2022-12-03T23:43:02.799Z,101767.88
2022-12-03T23:45:30.376Z,101767.19
2022-12-03T23:47:59.184Z,101766.44
2022-12-03T23:50:26.725Z,101771.31
2022-12-03T23:52:54.443Z,101760.53
2022-12-03T23:55:23.016Z,101763.59
2022-12-03T23:57:50.578Z,101764.38
